createdAt,value
2023-04-13T00:00:40.305Z,98165.84
2023-04-13T00:01:45.749Z,98174.31
2023-04-13T00:02:54.079Z,98182.22
2023-04-13T00:03:58.130Z,98157.72
2023-04-13T00:05:00.758Z,98170.50
2023-04-13T00:06:03.272Z,98178.81
2023-04-13T00:07:05.553Z,98175.44
2023-04-13T00:08:08.642Z,98177.72
2023-04-13T00:09:10.845Z,98174.91
2023-04-13T00:10:13.060Z,98177.19
2023-04-13T00:11:15.248Z,98172.88
2023-04-13T00:12:21.135Z,98181.63
2023-04-13T00:13:24.820Z,98173.94
2023-04-13T00:14:27.408Z,98189.72
2023-04-13T00:15:29.707Z,98177.47
2023-04-13T00:16:32.317Z,98178.63
2023-04-13T00:17:34.657Z,98179.09
2023-04-13T00:18:36.965Z,98182.38
2023-04-13T00:19:41.314Z,98184.72
2023-04-13T00:20:43.832Z,98177.63
2023-04-13T00:21:46.271Z,98183.00
2023-04-13T00:22:48.885Z,98177.94
2023-04-13T00:23:52.415Z,98187.47
2023-04-13T00:24:55.563Z,98177.22
2023-04-13T00:25:58.803Z,98180.91
2023-04-13T00:27:01.274Z,98185.56
2023-04-13T00:28:06.184Z,98173.50
2023-04-13T00:29:08.428Z,98178.03
2023-04-13T00:30:15.701Z,98178.03
2023-04-13T00:31:17.996Z,98171.88
2023-04-13T00:32:20.411Z,98168.91
2023-04-13T00:33:22.582Z,98175.84
2023-04-13T00:34:26.429Z,98170.69
2023-04-13T00:35:28.577Z,98175.31
2023-04-13T00:36:30.721Z,98175.91
2023-04-13T00:37:32.885Z,98171.59
2023-04-13T00:38:35.460Z,98161.94
2023-04-13T00:39:37.610Z,98164.53
2023-04-13T00:40:40.846Z,98168.41
2023-04-13T00:41:43.027Z,98163.66
2023-04-13T00:42:49.864Z,98174.63
2023-04-13T00:43:52.550Z,98171.16
2023-04-13T00:44:54.940Z,98162.59
2023-04-13T00:45:57.139Z,98171.63
2023-04-13T00:47:01.129Z,98164.72
2023-04-13T00:48:04.735Z,98165.41
2023-04-13T00:49:07.119Z,98172.56
2023-04-13T00:50:09.855Z,98167.78
2023-04-13T00:51:13.573Z,98166.22
2023-04-13T00:52:16.213Z,98174.69
2023-04-13T00:53:18.710Z,98162.69
2023-04-13T00:54:22.157Z,98159.47
2023-04-13T00:55:24.939Z,98147.84
2023-04-13T00:56:27.276Z,98149.53
2023-04-13T00:57:32.504Z,98154.69
2023-04-13T00:58:35.392Z,98164.41
2023-04-13T00:59:37.843Z,98158.13
2023-04-13T01:00:42.926Z,98161.22
2023-04-13T01:01:50.792Z,98152.88
2023-04-13T01:02:54.445Z,98164.66
2023-04-13T01:03:57.803Z,98166.59
2023-04-13T01:05:00.397Z,98176.56
2023-04-13T01:06:21.056Z,98171.94
2023-04-13T01:07:56.099Z,98181.63
2023-04-13T01:09:08.851Z,98184.41
2023-04-13T01:10:31.095Z,98187.41
2023-04-13T01:11:41.447Z,98177.63
2023-04-13T01:12:59.272Z,98180.38
2023-04-13T01:14:13.115Z,98191.50
2023-04-13T01:15:17.917Z,98194.97
2023-04-13T01:16:43.117Z,98189.19
2023-04-13T01:17:54.108Z,98189.63
2023-04-13T01:18:59.644Z,98191.03
2023-04-13T01:20:13.375Z,98189.56
2023-04-13T01:21:20.285Z,98187.78
2023-04-13T01:22:27.340Z,98175.03
2023-04-13T01:23:44.217Z,98179.59
2023-04-13T01:25:25.790Z,98187.09
2023-04-13T01:26:43.820Z,98179.63
2023-04-13T01:27:55.877Z,98183.28
2023-04-13T01:28:58.754Z,98188.22
2023-04-13T01:30:01.222Z,98177.72
2023-04-13T01:31:11.409Z,98183.97
2023-04-13T01:32:17.735Z,98178.97
2023-04-13T01:33:21.698Z,98182.63
2023-04-13T01:34:25.506Z,98187.94
2023-04-13T01:35:28.451Z,98173.63
2023-04-13T01:36:33.629Z,98186.28
2023-04-13T01:37:45.369Z,98188.09
2023-04-13T01:38:49.033Z,98190.81
2023-04-13T01:39:52.616Z,98195.81
2023-04-13T01:41:08.812Z,98187.53
2023-04-13T01:42:13.958Z,98188.34
2023-04-13T01:43:16.270Z,98183.34
2023-04-13T01:44:34.761Z,98188.16
2023-04-13T01:45:53.476Z,98191.63
2023-04-13T01:47:14.025Z,98188.50
2023-04-13T01:48:48.795Z,98190.38
2023-04-13T01:50:33.722Z,98187.28
2023-04-13T01:51:45.273Z,98191.25
2023-04-13T01:52:52.915Z,98194.00
2023-04-13T01:54:13.556Z,98185.09
2023-04-13T01:55:19.454Z,98192.66
2023-04-13T01:56:26.694Z,98186.78
2023-04-13T01:57:35.458Z,98184.91
2023-04-13T01:58:41.570Z,98191.81
2023-04-13T01:59:48.984Z,98186.78
2023-04-13T02:02:08.789Z,98182.84
2023-04-13T02:03:12.395Z,98196.16
2023-04-13T02:04:15.520Z,98191.00
2023-04-13T02:05:19.887Z,98193.41
2023-04-13T02:06:22.179Z,98181.19
2023-04-13T02:07:25.655Z,98191.44
2023-04-13T02:08:27.851Z,98192.06
2023-04-13T02:09:30.907Z,98189.47
2023-04-13T02:10:34.834Z,98189.81
2023-04-13T02:11:37.972Z,98182.69
2023-04-13T02:12:41.640Z,98191.19
2023-04-13T02:13:43.786Z,98183.06
2023-04-13T02:14:50.288Z,98183.81
2023-04-13T02:15:52.502Z,98177.47
2023-04-13T02:16:54.848Z,98182.75
2023-04-13T02:17:58.008Z,98183.56
2023-04-13T02:19:00.295Z,98182.00
2023-04-13T02:20:08.941Z,98180.56
2023-04-13T02:21:11.395Z,98183.06
2023-04-13T02:22:14.211Z,98182.13
2023-04-13T02:23:16.379Z,98180.16
2023-04-13T02:24:19.609Z,98173.13
2023-04-13T02:25:21.939Z,98177.75
2023-04-13T02:26:26.026Z,98179.66
2023-04-13T02:27:28.935Z,98166.84
2023-04-13T02:28:31.203Z,98175.22
2023-04-13T02:29:34.245Z,98166.53
2023-04-13T02:30:37.828Z,98170.13
2023-04-13T02:31:44.305Z,98157.31
2023-04-13T02:32:49.426Z,98167.53
2023-04-13T02:33:52.133Z,98174.59
2023-04-13T02:34:54.386Z,98173.13
2023-04-13T02:35:57.169Z,98178.34
2023-04-13T02:37:00.169Z,98176.59
2023-04-13T02:38:04.315Z,98173.25
2023-04-13T02:39:07.106Z,98169.72
2023-04-13T02:40:10.313Z,98174.44
2023-04-13T02:41:13.129Z,98180.38
2023-04-13T02:42:15.335Z,98178.59
2023-04-13T02:43:17.551Z,98186.59
2023-04-13T02:44:19.826Z,98181.19
2023-04-13T02:45:28.514Z,98173.53
2023-04-13T02:46:32.770Z,98179.00
2023-04-13T02:47:47.249Z,98186.94
2023-04-13T02:48:50.164Z,98188.78
2023-04-13T02:49:52.639Z,98186.59
2023-04-13T02:51:02.307Z,98187.09
2023-04-13T02:52:07.469Z,98194.91
2023-04-13T02:53:25.192Z,98192.69
2023-04-13T02:54:31.490Z,98194.25
2023-04-13T02:55:33.786Z,98185.53
2023-04-13T02:56:44.756Z,98204.84
2023-04-13T02:57:46.891Z,98200.06
2023-04-13T02:58:49.728Z,98198.34
2023-04-13T02:59:53.976Z,98209.50
2023-04-13T03:00:58.822Z,98206.03
2023-04-13T03:02:01.967Z,98214.59
2023-04-13T03:03:06.948Z,98208.97
2023-04-13T03:04:15.140Z,98208.81
2023-04-13T03:05:20.121Z,98211.34
2023-04-13T03:06:24.138Z,98216.56
2023-04-13T03:07:31.838Z,98213.91
2023-04-13T03:08:34.957Z,98215.88
2023-04-13T03:09:44.575Z,98217.81
2023-04-13T03:10:46.831Z,98218.00
2023-04-13T03:11:49.134Z,98215.22
2023-04-13T03:12:56.393Z,98226.22
2023-04-13T03:14:01.481Z,98211.66
2023-04-13T03:15:07.726Z,98218.00
2023-04-13T03:16:13.022Z,98218.56
2023-04-13T03:17:19.134Z,98229.44
2023-04-13T03:18:23.643Z,98227.75
2023-04-13T03:19:26.070Z,98231.34
2023-04-13T03:20:29.051Z,98228.31
2023-04-13T03:21:34.339Z,98238.63
2023-04-13T03:22:47.467Z,98232.72
2023-04-13T03:23:49.776Z,98238.13
2023-04-13T03:24:53.465Z,98229.75
2023-04-13T03:26:04.554Z,98233.97
2023-04-13T03:27:07.480Z,98235.78
2023-04-13T03:28:14.863Z,98240.19
2023-04-13T03:29:20.800Z,98241.59
2023-04-13T03:30:23.054Z,98231.72
2023-04-13T03:31:32.735Z,98236.66
2023-04-13T03:32:34.980Z,98230.56
2023-04-13T03:33:37.278Z,98233.06
2023-04-13T03:34:44.204Z,98226.06
2023-04-13T03:35:48.567Z,98238.13
2023-04-13T03:37:02.604Z,98233.91
2023-04-13T03:38:04.839Z,98228.88
2023-04-13T03:39:19.079Z,98224.84
2023-04-13T03:40:21.454Z,98221.91
2023-04-13T03:41:27.162Z,98226.56
2023-04-13T03:42:29.345Z,98236.03
2023-04-13T03:43:34.239Z,98228.31
2023-04-13T03:44:40.842Z,98228.88
2023-04-13T03:45:43.391Z,98244.63
2023-04-13T03:46:47.713Z,98235.78
2023-04-13T03:48:02.186Z,98235.09
2023-04-13T03:49:08.500Z,98236.09
2023-04-13T03:50:11.738Z,98242.88
2023-04-13T03:51:14.743Z,98237.50
2023-04-13T03:52:24.400Z,98242.66
2023-04-13T03:53:33.003Z,98242.13
2023-04-13T03:54:35.205Z,98230.56
2023-04-13T03:55:37.740Z,98233.97
2023-04-13T03:56:42.591Z,98242.06
2023-04-13T03:57:44.958Z,98240.38
2023-04-13T03:58:52.238Z,98233.75
2023-04-13T03:59:58.771Z,98243.50
2023-04-13T04:01:16.551Z,98241.66
2023-04-13T04:02:22.916Z,98239.97
2023-04-13T04:03:25.612Z,98239.31
2023-04-13T04:05:51.728Z,98251.81
2023-04-13T04:06:53.904Z,98252.44
2023-04-13T04:07:56.292Z,98253.88
2023-04-13T04:08:58.721Z,98249.72
2023-04-13T04:10:11.885Z,98254.31
2023-04-13T04:11:14.132Z,98257.03
2023-04-13T04:12:16.423Z,98254.50
2023-04-13T04:13:19.815Z,98252.94
2023-04-13T04:14:25.991Z,98252.25
2023-04-13T04:15:38.887Z,98256.69
2023-04-13T04:16:41.598Z,98261.13
2023-04-13T04:17:49.931Z,98254.44
2023-04-13T04:18:52.243Z,98259.72
2023-04-13T04:19:55.751Z,98258.66
2023-04-13T04:21:02.832Z,98258.47
2023-04-13T04:22:07.040Z,98257.97
2023-04-13T04:23:15.225Z,98259.72
2023-04-13T04:24:38.944Z,98254.38
2023-04-13T04:25:41.924Z,98254.50
2023-04-13T04:26:50.275Z,98256.25
2023-04-13T04:27:53.045Z,98258.03
2023-04-13T04:29:01.824Z,98263.75
2023-04-13T04:30:05.771Z,98254.00
2023-04-13T04:31:12.147Z,98259.03
2023-04-13T04:32:19.778Z,98251.63
2023-04-13T04:33:22.800Z,98256.69
2023-04-13T04:34:27.539Z,98264.69
2023-04-13T04:35:33.321Z,98259.66
2023-04-13T04:36:36.481Z,98262.00
2023-04-13T04:37:39.001Z,98265.38
2023-04-13T04:38:44.595Z,98273.41
2023-04-13T04:39:48.823Z,98267.28
2023-04-13T04:40:57.275Z,98266.94
2023-04-13T04:42:05.480Z,98260.22
2023-04-13T04:43:08.383Z,98267.69
2023-04-13T04:44:16.832Z,98277.00
2023-04-13T04:45:20.814Z,98269.47
2023-04-13T04:46:25.941Z,98264.81
2023-04-13T04:47:32.184Z,98263.25
2023-04-13T04:48:54.353Z,98265.00
2023-04-13T04:49:59.302Z,98281.47
2023-04-13T04:51:01.582Z,98267.06
2023-04-13T04:52:12.305Z,98273.19
2023-04-13T04:53:15.715Z,98276.50
2023-04-13T04:54:18.297Z,98272.16
2023-04-13T04:55:22.094Z,98283.91
2023-04-13T04:56:24.446Z,98278.63
2023-04-13T04:57:29.849Z,98283.91
2023-04-13T04:58:32.494Z,98291.97
2023-04-13T04:59:34.703Z,98287.06
2023-04-13T05:00:38.973Z,98286.19
2023-04-13T05:01:45.570Z,98288.25
2023-04-13T05:02:50.794Z,98290.28
2023-04-13T05:03:53.522Z,98290.72
2023-04-13T05:05:02.849Z,98296.63
2023-04-13T05:06:05.440Z,98290.72
2023-04-13T05:07:09.554Z,98287.75
2023-04-13T05:08:14.878Z,98288.75
2023-04-13T05:09:21.011Z,98285.88
2023-04-13T05:10:29.544Z,98287.13
2023-04-13T05:11:33.727Z,98292.13
2023-04-13T05:12:38.923Z,98291.00
2023-04-13T05:13:42.032Z,98306.09
2023-04-13T05:14:51.585Z,98292.47
2023-04-13T05:15:54.373Z,98303.28
2023-04-13T05:16:56.708Z,98296.09
2023-04-13T05:18:15.392Z,98304.91
2023-04-13T05:19:17.621Z,98307.38
2023-04-13T05:20:24.114Z,98306.03
2023-04-13T05:21:31.195Z,98307.78
2023-04-13T05:22:35.257Z,98298.56
2023-04-13T05:23:40.981Z,98306.84
2023-04-13T05:24:43.642Z,98305.28
2023-04-13T05:25:49.021Z,98309.63
2023-04-13T05:26:57.172Z,98313.31
2023-04-13T05:27:59.575Z,98309.28
2023-04-13T05:29:04.571Z,98310.69
2023-04-13T05:30:10.732Z,98313.00
2023-04-13T05:31:15.701Z,98317.84
2023-04-13T05:32:20.981Z,98307.03
2023-04-13T05:33:25.038Z,98319.28
2023-04-13T05:34:30.900Z,98322.63
2023-04-13T05:35:57.033Z,98325.13
2023-04-13T05:36:59.984Z,98317.53
2023-04-13T05:38:02.197Z,98325.31
2023-04-13T05:39:07.002Z,98323.88
2023-04-13T05:40:13.528Z,98328.63
2023-04-13T05:41:16.210Z,98329.03
2023-04-13T05:42:19.004Z,98328.84
2023-04-13T05:43:23.876Z,98324.00
2023-04-13T05:44:27.812Z,98330.66
2023-04-13T05:45:30.575Z,98327.09
2023-04-13T05:46:42.562Z,98334.13
2023-04-13T05:47:45.469Z,98330.03
2023-04-13T05:48:50.633Z,98338.94
2023-04-13T05:49:55.917Z,98343.34
2023-04-13T05:50:59.658Z,98333.16
2023-04-13T05:52:07.769Z,98333.28
2023-04-13T05:53:17.046Z,98340.56
2023-04-13T05:54:23.214Z,98345.22
2023-04-13T05:55:27.492Z,98340.56
2023-04-13T05:56:36.839Z,98334.28
2023-04-13T05:57:39.984Z,98328.00
2023-04-13T05:58:47.340Z,98338.00
2023-04-13T06:00:02.052Z,98343.16
2023-04-13T06:01:16.640Z,98341.63
2023-04-13T06:02:20.571Z,98335.13
2023-04-13T06:03:25.764Z,98335.38
2023-04-13T06:04:28.443Z,98347.63
2023-04-13T06:05:32.426Z,98333.44
2023-04-13T06:06:35.888Z,98334.69
2023-04-13T06:07:38.087Z,98334.84
2023-04-13T06:08:40.283Z,98329.41
2023-04-13T06:09:43.046Z,98344.31
2023-04-13T06:10:45.485Z,98339.59
2023-04-13T06:11:47.745Z,98337.75
2023-04-13T06:12:51.083Z,98339.03
2023-04-13T06:13:53.492Z,98332.00
2023-04-13T06:14:55.682Z,98335.31
2023-04-13T06:15:58.091Z,98335.44
2023-04-13T06:17:00.827Z,98330.91
2023-04-13T06:18:03.473Z,98338.03
2023-04-13T06:19:05.913Z,98334.88
2023-04-13T06:20:10.687Z,98335.28
2023-04-13T06:21:13.095Z,98335.28
2023-04-13T06:22:15.313Z,98341.56
2023-04-13T06:23:18.448Z,98341.16
2023-04-13T06:24:20.977Z,98341.56
2023-04-13T06:25:23.376Z,98338.66
2023-04-13T06:26:26.135Z,98346.56
2023-04-13T06:27:33.717Z,98336.41
2023-04-13T06:28:37.083Z,98334.97
2023-04-13T06:29:40.268Z,98342.13
2023-04-13T06:30:45.612Z,98339.50
2023-04-13T06:31:49.818Z,98343.38
2023-04-13T06:32:54.093Z,98338.94
2023-04-13T06:33:58.958Z,98344.75
2023-04-13T06:35:06.564Z,98345.44
2023-04-13T06:36:18.062Z,98345.38
2023-04-13T06:37:20.325Z,98343.03
2023-04-13T06:38:25.851Z,98342.38
2023-04-13T06:39:37.453Z,98342.22
2023-04-13T06:40:41.117Z,98345.50
2023-04-13T06:41:44.977Z,98340.72
2023-04-13T06:42:56.201Z,98348.25
2023-04-13T06:44:07.485Z,98343.72
2023-04-13T06:45:14.563Z,98344.38
2023-04-13T06:46:19.988Z,98346.78
2023-04-13T06:47:25.084Z,98342.66
2023-04-13T06:48:28.872Z,98344.34
2023-04-13T06:49:34.410Z,98339.66
2023-04-13T06:50:37.825Z,98351.28
2023-04-13T06:51:41.908Z,98350.22
2023-04-13T06:52:47.204Z,98353.06
2023-04-13T06:53:51.402Z,98343.41
2023-04-13T06:54:54.399Z,98349.03
2023-04-13T06:56:06.892Z,98352.13
2023-04-13T06:57:09.596Z,98346.19
2023-04-13T06:58:12.881Z,98350.50
2023-04-13T06:59:15.325Z,98346.16
2023-04-13T07:00:29.723Z,98340.72
2023-04-13T07:01:33.508Z,98348.19
2023-04-13T07:02:36.404Z,98335.09
2023-04-13T07:03:40.260Z,98334.50
2023-04-13T07:04:42.822Z,98344.81
2023-04-13T07:05:45.490Z,98343.59
2023-04-13T07:06:51.700Z,98342.16
2023-04-13T07:07:53.869Z,98342.50
2023-04-13T07:08:57.162Z,98341.97
2023-04-13T07:10:00.482Z,98344.63
2023-04-13T07:11:03.218Z,98341.44
2023-04-13T07:12:12.381Z,98335.78
2023-04-13T07:13:14.564Z,98337.72
2023-04-13T07:14:16.807Z,98335.88
2023-04-13T07:15:19.153Z,98343.09
2023-04-13T07:16:21.418Z,98344.03
2023-04-13T07:17:23.887Z,98341.34
2023-04-13T07:18:26.232Z,98348.44
2023-04-13T07:19:34.220Z,98346.41
2023-04-13T07:20:38.179Z,98344.06
2023-04-13T07:21:40.457Z,98345.59
2023-04-13T07:22:42.668Z,98343.28
2023-04-13T07:23:45.461Z,98342.06
2023-04-13T07:24:48.101Z,98340.28
2023-04-13T07:25:53.856Z,98334.91
2023-04-13T07:27:01.379Z,98337.09
2023-04-13T07:28:03.784Z,98335.25
2023-04-13T07:29:13.053Z,98342.34
2023-04-13T07:30:17.346Z,98340.84
2023-04-13T07:31:22.592Z,98342.94
2023-04-13T07:32:31.153Z,98340.03
2023-04-13T07:33:34.155Z,98338.31
2023-04-13T07:34:37.327Z,98340.41
2023-04-13T07:35:39.995Z,98336.84
2023-04-13T07:36:43.307Z,98347.84
2023-04-13T07:37:51.463Z,98341.94
2023-04-13T07:38:56.180Z,98349.50
2023-04-13T07:39:59.187Z,98343.56
2023-04-13T07:41:01.612Z,98342.03
2023-04-13T07:42:07.846Z,98341.34
2023-04-13T07:43:20.343Z,98340.72
2023-04-13T07:44:23.141Z,98341.25
2023-04-13T07:45:25.504Z,98342.91
2023-04-13T07:46:27.808Z,98348.53
2023-04-13T07:47:31.018Z,98336.38
2023-04-13T07:48:39.446Z,98346.03
2023-04-13T07:49:49.771Z,98340.72
2023-04-13T07:50:55.321Z,98349.66
2023-04-13T07:51:59.911Z,98346.38
2023-04-13T07:53:05.104Z,98345.59
2023-04-13T07:54:07.482Z,98350.78
2023-04-13T07:55:11.730Z,98353.94
2023-04-13T07:56:20.061Z,98342.97
2023-04-13T07:57:22.302Z,98345.19
2023-04-13T07:58:30.717Z,98355.69
2023-04-13T07:59:33.059Z,98356.63
2023-04-13T08:00:35.650Z,98349.81
2023-04-13T08:01:40.055Z,98353.78
2023-04-13T08:02:43.657Z,98358.81
2023-04-13T08:03:50.536Z,98353.72
2023-04-13T08:04:57.653Z,98352.03
2023-04-13T08:06:07.638Z,98349.75
2023-04-13T08:07:09.929Z,98350.44
2023-04-13T08:08:12.830Z,98353.59
2023-04-13T08:09:15.156Z,98361.81
2023-04-13T08:10:17.651Z,98359.47
2023-04-13T08:11:20.731Z,98364.94
2023-04-13T08:12:27.541Z,98359.91
2023-04-13T08:13:30.338Z,98369.53
2023-04-13T08:14:32.854Z,98366.88
2023-04-13T08:15:35.186Z,98362.72
2023-04-13T08:16:38.158Z,98363.28
2023-04-13T08:17:44.408Z,98363.66
2023-04-13T08:18:47.437Z,98352.91
2023-04-13T08:19:50.033Z,98364.28
2023-04-13T08:20:58.344Z,98371.13
2023-04-13T08:22:05.330Z,98361.72
2023-04-13T08:23:07.632Z,98359.66
2023-04-13T08:24:09.966Z,98358.28
2023-04-13T08:25:12.157Z,98366.84
2023-04-13T08:26:21.598Z,98364.00
2023-04-13T08:27:23.931Z,98366.78
2023-04-13T08:28:26.487Z,98350.50
2023-04-13T08:29:28.905Z,98357.91
2023-04-13T08:30:34.569Z,98363.06
2023-04-13T08:31:38.628Z,98359.91
2023-04-13T08:32:41.546Z,98364.22
2023-04-13T08:33:43.836Z,98359.28
2023-04-13T08:34:46.564Z,98367.38
2023-04-13T08:35:52.045Z,98359.47
2023-04-13T08:36:55.146Z,98378.19
2023-04-13T08:38:02.526Z,98362.97
2023-04-13T08:39:05.971Z,98365.53
2023-04-13T08:40:11.940Z,98373.09
2023-04-13T08:41:17.482Z,98372.06
2023-04-13T08:42:25.095Z,98360.34
2023-04-13T08:43:28.075Z,98368.94
2023-04-13T08:44:32.616Z,98367.34
2023-04-13T08:45:36.032Z,98362.09
2023-04-13T08:46:39.710Z,98372.03
2023-04-13T08:47:42.572Z,98383.81
2023-04-13T08:48:53.626Z,98385.25
2023-04-13T08:50:01.770Z,98376.25
2023-04-13T08:51:14.610Z,98383.53
2023-04-13T08:52:17.486Z,98376.63
2023-04-13T08:53:23.746Z,98382.78
2023-04-13T08:54:28.416Z,98387.69
2023-04-13T08:55:31.451Z,98377.09
2023-04-13T08:56:45.443Z,98378.69
2023-04-13T08:57:53.095Z,98386.06
2023-04-13T08:59:03.450Z,98379.91
2023-04-13T09:00:11.995Z,98378.78
2023-04-13T09:01:15.422Z,98385.72
2023-04-13T09:02:24.424Z,98377.94
2023-04-13T09:03:33.874Z,98377.31
2023-04-13T09:04:39.529Z,98382.50
2023-04-13T09:05:42.097Z,98378.75
2023-04-13T09:06:47.876Z,98382.56
2023-04-13T09:07:53.532Z,98369.50
2023-04-13T09:08:58.341Z,98383.28
2023-04-13T09:10:01.105Z,98379.34
2023-04-13T09:11:04.735Z,98382.16
2023-04-13T09:12:06.985Z,98371.91
2023-04-13T09:13:09.438Z,98377.91
2023-04-13T09:14:12.576Z,98376.34
2023-04-13T09:15:15.681Z,98378.78
2023-04-13T09:16:44.965Z,98372.09
2023-04-13T09:17:53.306Z,98377.06
2023-04-13T09:18:58.149Z,98369.13
2023-04-13T09:20:17.095Z,98361.81
2023-04-13T09:21:19.730Z,98373.25
2023-04-13T09:22:21.991Z,98373.06
2023-04-13T09:23:24.545Z,98373.03
2023-04-13T09:24:27.309Z,98388.00
2023-04-13T09:25:29.578Z,98382.25
2023-04-13T09:26:40.701Z,98391.13
2023-04-13T09:27:43.013Z,98384.69
2023-04-13T09:28:47.825Z,98393.13
2023-04-13T09:29:52.236Z,98404.78
2023-04-13T09:31:02.564Z,98395.75
2023-04-13T09:32:06.758Z,98384.81
2023-04-13T09:33:11.078Z,98389.56
2023-04-13T09:34:13.895Z,98390.69
2023-04-13T09:35:16.100Z,98385.13
2023-04-13T09:36:20.628Z,98387.69
2023-04-13T09:37:22.837Z,98396.53
2023-04-13T09:38:31.495Z,98407.31
2023-04-13T09:39:33.767Z,98404.88
2023-04-13T09:40:41.148Z,98400.91
2023-04-13T09:41:47.750Z,98403.56
2023-04-13T09:43:07.940Z,98405.84
2023-04-13T09:44:17.873Z,98400.22
2023-04-13T09:45:20.174Z,98413.09
2023-04-13T09:46:22.546Z,98410.09
2023-04-13T09:47:26.165Z,98409.50
2023-04-13T09:48:28.485Z,98412.53
2023-04-13T09:49:42.984Z,98408.69
2023-04-13T09:50:45.245Z,98412.16
2023-04-13T09:51:47.894Z,98429.25
2023-04-13T09:53:00.650Z,98412.91
2023-04-13T09:54:02.979Z,98419.22
2023-04-13T09:55:15.655Z,98420.50
2023-04-13T09:56:18.474Z,98418.88
2023-04-13T09:57:27.975Z,98415.13
2023-04-13T09:58:31.204Z,98421.28
2023-04-13T09:59:34.259Z,98424.19
2023-04-13T10:00:41.966Z,98424.09
2023-04-13T10:01:44.732Z,98419.53
2023-04-13T10:02:51.092Z,98430.31
2023-04-13T10:03:53.469Z,98425.56
2023-04-13T10:05:00.119Z,98427.19
2023-04-13T10:06:06.437Z,98428.94
2023-04-13T10:07:09.979Z,98432.06
2023-04-13T10:08:12.169Z,98424.78
2023-04-13T10:09:15.023Z,98418.06
2023-04-13T10:10:17.367Z,98419.28
2023-04-13T10:11:19.594Z,98419.09
2023-04-13T10:12:24.696Z,98415.13
2023-04-13T10:13:35.661Z,98407.06
2023-04-13T10:14:43.064Z,98409.94
2023-04-13T10:16:23.199Z,98404.53
2023-04-13T10:17:55.875Z,98397.75
2023-04-13T10:19:07.740Z,98399.19
2023-04-13T10:20:13.571Z,98405.25
2023-04-13T10:21:16.700Z,98407.31
2023-04-13T10:22:22.676Z,98404.69
2023-04-13T10:23:25.727Z,98406.44
2023-04-13T10:24:28.773Z,98405.75
2023-04-13T10:25:33.446Z,98402.69
2023-04-13T10:26:39.382Z,98403.38
2023-04-13T10:27:42.061Z,98407.13
2023-04-13T10:28:48.206Z,98415.25
2023-04-13T10:29:50.809Z,98420.38
2023-04-13T10:30:53.601Z,98408.88
2023-04-13T10:31:57.306Z,98415.53
2023-04-13T10:33:09.541Z,98411.06
2023-04-13T10:34:23.238Z,98418.66
2023-04-13T10:35:26.031Z,98425.03
2023-04-13T10:36:58.349Z,98432.25
2023-04-13T10:38:01.122Z,98437.78
2023-04-13T10:39:03.394Z,98423.56
2023-04-13T10:40:08.846Z,98418.31
2023-04-13T10:41:11.322Z,98421.13
2023-04-13T10:42:14.477Z,98426.53
2023-04-13T10:43:31.185Z,98422.38
2023-04-13T10:44:50.262Z,98427.34
2023-04-13T10:46:12.918Z,98414.19
2023-04-13T10:47:25.046Z,98412.59
2023-04-13T10:48:28.837Z,98417.56
2023-04-13T10:49:32.562Z,98417.16
2023-04-13T10:50:34.772Z,98416.72
2023-04-13T10:51:43.965Z,98408.94
2023-04-13T10:53:06.756Z,98413.00
2023-04-13T10:54:10.375Z,98408.59
2023-04-13T10:55:13.491Z,98407.34
2023-04-13T10:56:16.926Z,98405.44
2023-04-13T10:57:19.090Z,98403.75
2023-04-13T10:58:23.017Z,98408.84
2023-04-13T11:00:51.362Z,98400.88
2023-04-13T11:01:53.977Z,98408.44
2023-04-13T11:02:58.001Z,98405.81
2023-04-13T11:04:07.500Z,98401.72
2023-04-13T11:05:16.876Z,98397.59
2023-04-13T11:06:19.228Z,98390.34
2023-04-13T11:07:23.365Z,98387.72
2023-04-13T11:08:27.760Z,98388.88
2023-04-13T11:09:30.151Z,98394.31
2023-04-13T11:10:32.554Z,98393.38
2023-04-13T11:11:36.902Z,98387.78
2023-04-13T11:12:39.382Z,98400.56
2023-04-13T11:13:47.095Z,98392.69
2023-04-13T11:14:50.983Z,98398.06
2023-04-13T11:16:04.140Z,98390.28
2023-04-13T11:17:07.987Z,98392.88
2023-04-13T11:18:10.396Z,98399.31
2023-04-13T11:19:13.055Z,98405.16
2023-04-13T11:20:15.574Z,98401.63
2023-04-13T11:21:18.087Z,98392.25
2023-04-13T11:22:27.595Z,98398.28
2023-04-13T11:23:34.394Z,98398.28
2023-04-13T11:24:36.608Z,98401.53
2023-04-13T11:25:38.824Z,98397.66
2023-04-13T11:26:43.292Z,98401.00
2023-04-13T11:27:49.511Z,98393.13
2023-04-13T11:28:53.305Z,98395.84
2023-04-13T11:29:58.877Z,98394.84
2023-04-13T11:31:01.456Z,98400.31
2023-04-13T11:32:03.747Z,98398.72
2023-04-13T11:33:06.416Z,98392.78
2023-04-13T11:34:09.778Z,98394.47
2023-04-13T11:35:16.556Z,98401.91
2023-04-13T11:36:20.404Z,98401.31
2023-04-13T11:37:22.622Z,98393.34
2023-04-13T11:38:25.606Z,98386.50
2023-04-13T11:39:28.813Z,98390.88
2023-04-13T11:40:31.496Z,98393.59
2023-04-13T11:41:39.510Z,98390.38
2023-04-13T11:42:43.490Z,98397.50
2023-04-13T11:43:46.643Z,98397.97
2023-04-13T11:44:48.951Z,98387.66
2023-04-13T11:45:51.916Z,98398.75
2023-04-13T11:46:54.555Z,98394.84
2023-04-13T11:47:57.907Z,98391.88
2023-04-13T11:49:00.723Z,98394.06
2023-04-13T11:50:04.408Z,98396.03
2023-04-13T11:51:06.705Z,98390.09
2023-04-13T11:52:08.999Z,98385.81
2023-04-13T11:53:11.583Z,98381.50
2023-04-13T11:54:14.428Z,98389.56
2023-04-13T11:55:23.189Z,98386.94
2023-04-13T11:56:25.927Z,98381.38
2023-04-13T11:57:29.000Z,98382.78
2023-04-13T11:58:31.644Z,98381.59
2023-04-13T11:59:33.819Z,98378.78
2023-04-13T12:00:41.130Z,98378.25
2023-04-13T12:01:53.199Z,98374.88
2023-04-13T12:03:02.907Z,98375.00
2023-04-13T12:04:14.956Z,98387.66
2023-04-13T12:05:26.181Z,98377.50
2023-04-13T12:06:30.959Z,98383.25
2023-04-13T12:07:33.623Z,98384.91
2023-04-13T12:08:36.760Z,98389.47
2023-04-13T12:09:55.941Z,98377.94
2023-04-13T12:13:35.987Z,98382.06
2023-04-13T12:14:55.364Z,98385.81
2023-04-13T12:16:08.423Z,98376.63
2023-04-13T12:18:28.380Z,98388.13
2023-04-13T12:19:40.916Z,98378.16
2023-04-13T12:20:48.074Z,98384.22
2023-04-13T12:21:53.138Z,98380.31
2023-04-13T12:23:03.089Z,98381.19
2023-04-13T12:24:15.520Z,98372.41
2023-04-13T12:25:24.190Z,98383.38
2023-04-13T12:27:40.972Z,98370.28
2023-04-13T12:28:43.274Z,98367.22
2023-04-13T12:29:45.545Z,98368.28
2023-04-13T12:30:47.786Z,98376.94
2023-04-13T12:31:50.075Z,98372.41
2023-04-13T12:32:55.144Z,98378.78
2023-04-13T12:33:57.486Z,98378.94
2023-04-13T12:35:00.257Z,98378.75
2023-04-13T12:36:02.769Z,98371.63
2023-04-13T12:37:05.104Z,98378.31
2023-04-13T12:38:08.110Z,98380.06
2023-04-13T12:39:11.020Z,98375.84
2023-04-13T12:40:15.510Z,98371.72
2023-04-13T12:41:17.742Z,98380.06
2023-04-13T12:42:20.093Z,98368.81
2023-04-13T12:43:22.702Z,98369.41
2023-04-13T12:44:24.888Z,98367.19
2023-04-13T12:45:28.320Z,98360.31
2023-04-13T12:46:30.824Z,98363.66
2023-04-13T12:47:33.107Z,98361.59
2023-04-13T12:48:35.355Z,98362.06
2023-04-13T12:49:38.103Z,98349.84
2023-04-13T12:50:40.421Z,98354.94
2023-04-13T12:51:42.577Z,98347.69
2023-04-13T12:52:45.167Z,98355.28
2023-04-13T12:53:47.298Z,98354.88
2023-04-13T12:54:50.869Z,98341.41
2023-04-13T12:55:53.095Z,98345.56
2023-04-13T12:56:55.411Z,98339.47
2023-04-13T12:57:58.283Z,98347.25
2023-04-13T12:59:01.369Z,98339.94
2023-04-13T13:00:09.551Z,98338.53